This is the latest recevied weather packets stored in our database for station/object G6LTT-13. If no packets are shown the sender has not sent any weather packets the latest 10 day(s).
| Time | Temp. | Humidity | Pressure | Rain* | Wind** | Luminosity | Snow |
|---|---|---|---|---|---|---|---|
| 1777822480 | 18.33° C | 56% | 1037.2 hPa | 0 mm | - | - | - |
| 1777820680 | 17.78° C | 59% | 1037.5 hPa | 0 mm | - | - | - |
| 1777818880 | 18.33° C | 57% | 1037.5 hPa | 0 mm | - | - | - |
| 1777817080 | 17.78° C | 58% | 1037.5 hPa | 0 mm | - | - | - |
| 1777815280 | 18.33° C | 57% | 1037.7 hPa | 0 mm | - | - | - |
| 1777813480 | 18.33° C | 56% | 1037.6 hPa | 0 mm | - | - | - |
| 1777811680 | 16.67° C | 60% | 1037.7 hPa | 0 mm | - | - | - |
| 1777809880 | 17.22° C | 61% | 1037.8 hPa | 0 mm | - | - | - |
| 1777808080 | 17.78° C | 61% | 1037.8 hPa | 0 mm | - | - | - |
| 1777806280 | 16.67° C | 65% | 1037.8 hPa | 0 mm | - | - | - |
| 1777804480 | 16.11° C | 66% | 1038 hPa | 0 mm | - | - | - |
| 1777802680 | 15° C | 70% | 1038 hPa | 0 mm | - | - | - |
| 1777800880 | 14.44° C | 74% | 1038.2 hPa | 0 mm | - | - | - |
| 1777799080 | 13.89° C | 75% | 1038.1 hPa | 0 mm | - | - | - |
| 1777797280 | 13.89° C | 76% | 1038.1 hPa | 0 mm | - | - | - |
| 1777795480 | 13.89° C | 76% | 1038 hPa | 0 mm | - | - | - |
| 1777793680 | 13.33° C | 79% | 1037.8 hPa | 0 mm | - | - | - |
| 1777791880 | 13.33° C | 81% | 1037.9 hPa | 0 mm | - | - | - |
| 1777790080 | 12.22° C | 84% | 1037.7 hPa | 0 mm | - | - | - |
| 1777788280 | 12.22° C | 85% | 1037.9 hPa | 0 mm | - | - | - |
| 1777786480 | 12.22° C | 86% | 1037.6 hPa | 0 mm | - | - | - |
| 1777784680 | 12.22° C | 85% | 1037.5 hPa | 0 mm | - | - | - |
| 1777782880 | 12.22° C | 85% | 1037.4 hPa | 0 mm | - | - | - |
| 1777781080 | 12.22° C | 86% | 1037.5 hPa | 0 mm | - | - | - |
| 1777779280 | 12.22° C | 85% | 1037.5 hPa | 0 mm | - | - | - |
* Rain latest hour (hover to see other rain measurements)
** Current wind speed in m/s (hover to see current wind gust speed)